createdAt,value
2018-06-24T00:00:45.691Z,62.06
2018-06-24T00:03:14.876Z,62.34
2018-06-24T00:05:45.059Z,61.92
2018-06-24T00:08:14.138Z,63.36
2018-06-24T00:10:43.266Z,63.72
2018-06-24T00:13:12.563Z,63.64
2018-06-24T00:15:41.658Z,63.51
2018-06-24T00:18:10.749Z,63.57
2018-06-24T00:20:39.880Z,63.52
2018-06-24T00:23:09.458Z,63.84
2018-06-24T00:25:39.576Z,63.29
2018-06-24T00:28:08.697Z,63.26
2018-06-24T00:30:37.773Z,63.92
2018-06-24T00:33:06.962Z,64.16
2018-06-24T00:35:36.030Z,63.83
2018-06-24T00:38:05.717Z,64.79
2018-06-24T00:40:34.826Z,64.65
2018-06-24T00:43:03.959Z,64.14
2018-06-24T00:45:33.050Z,64.87
2018-06-24T00:48:02.252Z,64.97
2018-06-24T00:50:31.349Z,65.65
2018-06-24T00:53:00.453Z,64.82
2018-06-24T00:55:29.614Z,65.39
2018-06-24T00:57:58.706Z,65.23
2018-06-24T01:00:27.817Z,64.68
2018-06-24T01:02:56.912Z,65.27
2018-06-24T01:05:26.008Z,65.33
2018-06-24T01:07:55.065Z,65.64
2018-06-24T01:10:24.120Z,65.99
2018-06-24T01:12:53.212Z,65.72
2018-06-24T01:15:22.278Z,65.18
2018-06-24T01:17:51.367Z,65.82
2018-06-24T01:20:20.493Z,66.10
2018-06-24T01:22:49.620Z,66.02
2018-06-24T01:25:18.773Z,66.21
2018-06-24T01:27:47.848Z,65.64
2018-06-24T01:30:16.976Z,65.51
2018-06-24T01:32:46.115Z,66.56
2018-06-24T01:35:15.236Z,66.04
2018-06-24T01:37:44.301Z,66.46
2018-06-24T01:40:13.464Z,65.62
2018-06-24T01:42:43.465Z,65.81
2018-06-24T01:45:12.541Z,65.70
2018-06-24T01:47:41.879Z,65.58
2018-06-24T01:50:11.140Z,65.17
2018-06-24T01:52:40.247Z,65.56
2018-06-24T01:55:09.417Z,65.62
2018-06-24T01:57:38.494Z,65.67
2018-06-24T02:00:07.624Z,65.67
2018-06-24T02:02:36.701Z,66.07
2018-06-24T02:05:05.865Z,65.33
2018-06-24T02:07:34.942Z,65.55
2018-06-24T02:10:04.024Z,66.11
2018-06-24T02:12:33.222Z,66.33
2018-06-24T02:15:02.358Z,65.77
2018-06-24T02:17:32.177Z,65.97
2018-06-24T02:20:01.249Z,65.35
2018-06-24T02:22:30.318Z,65.95
2018-06-24T02:24:59.414Z,66.88
2018-06-24T02:27:28.708Z,66.90
2018-06-24T02:29:57.774Z,66.49
2018-06-24T02:32:26.921Z,66.86
2018-06-24T02:34:56.049Z,67.46
2018-06-24T02:37:25.241Z,67.13
2018-06-24T02:39:54.389Z,67.71
2018-06-24T02:42:23.437Z,66.93
2018-06-24T02:44:52.614Z,67.11
2018-06-24T02:47:22.197Z,68.89
2018-06-24T02:49:51.309Z,68.55
2018-06-24T02:52:20.460Z,67.99
2018-06-24T02:54:49.735Z,68.30
2018-06-24T02:57:18.828Z,68.11
2018-06-24T02:59:47.952Z,67.67
2018-06-24T03:02:17.346Z,68.26
2018-06-24T03:04:46.471Z,69.04
2018-06-24T03:07:15.525Z,67.87
2018-06-24T03:09:44.644Z,68.02
2018-06-24T03:12:13.706Z,67.94
2018-06-24T03:14:42.782Z,67.18
2018-06-24T03:17:11.913Z,67.07
2018-06-24T03:19:41.061Z,67.22
2018-06-24T03:22:10.216Z,66.85
2018-06-24T03:24:39.347Z,66.13
2018-06-24T03:27:08.445Z,66.92
2018-06-24T03:29:37.612Z,67.05
2018-06-24T03:32:06.718Z,66.90
2018-06-24T03:34:35.954Z,66.67
2018-06-24T03:37:05.416Z,66.39
2018-06-24T03:39:34.517Z,66.33
2018-06-24T03:42:03.610Z,67.12
2018-06-24T03:44:32.712Z,67.01
2018-06-24T03:47:01.871Z,67.07
2018-06-24T03:49:30.990Z,67.40
2018-06-24T03:52:00.111Z,67.65
2018-06-24T03:54:29.220Z,66.65
2018-06-24T03:56:58.903Z,66.29
2018-06-24T03:59:28.108Z,66.59
2018-06-24T04:01:57.219Z,67.47
2018-06-24T04:04:26.293Z,67.37
2018-06-24T04:06:55.386Z,67.66
2018-06-24T04:09:24.521Z,66.93
2018-06-24T04:11:53.621Z,67.03
2018-06-24T04:14:22.677Z,66.26
2018-06-24T04:16:51.803Z,66.95
2018-06-24T04:19:21.289Z,66.75
2018-06-24T04:21:50.450Z,66.55
2018-06-24T04:24:19.561Z,66.78
2018-06-24T04:26:49.285Z,66.26
2018-06-24T04:29:18.374Z,66.15
2018-06-24T04:31:47.486Z,66.23
2018-06-24T04:34:16.989Z,66.32
2018-06-24T04:36:46.211Z,66.30
2018-06-24T04:39:15.260Z,66.23
2018-06-24T04:41:44.507Z,66.87
2018-06-24T04:44:13.624Z,66.69
2018-06-24T04:46:42.742Z,66.61
2018-06-24T04:49:11.934Z,67.18
2018-06-24T04:51:41.065Z,66.88
2018-06-24T04:54:10.147Z,66.77
2018-06-24T04:56:39.226Z,66.02
2018-06-24T04:59:08.749Z,66.22
2018-06-24T05:01:37.926Z,65.88
2018-06-24T05:04:07.010Z,65.36
2018-06-24T05:06:36.207Z,65.37
2018-06-24T05:09:07.799Z,65.41
2018-06-24T05:11:36.885Z,65.76
2018-06-24T05:14:06.582Z,65.99
2018-06-24T05:16:35.776Z,65.96
2018-06-24T05:19:05.141Z,66.27
2018-06-24T05:21:34.280Z,65.36
2018-06-24T05:24:03.368Z,65.48
2018-06-24T05:26:32.461Z,65.00
2018-06-24T05:29:01.601Z,64.66
2018-06-24T05:31:30.702Z,63.91
2018-06-24T05:33:59.814Z,64.31
2018-06-24T05:36:28.895Z,64.56
2018-06-24T05:38:58.046Z,65.43
2018-06-24T05:41:27.134Z,64.98
2018-06-24T05:43:56.199Z,64.53
2018-06-24T05:46:25.326Z,63.96
2018-06-24T05:48:54.559Z,63.30
2018-06-24T05:51:23.617Z,64.14
2018-06-24T05:53:52.710Z,64.51
2018-06-24T05:56:21.809Z,66.40
2018-06-24T05:58:50.950Z,66.90
2018-06-24T06:01:20.017Z,65.91
2018-06-24T06:03:49.090Z,65.91
2018-06-24T06:06:18.212Z,66.23
2018-06-24T06:08:47.314Z,66.81
2018-06-24T06:11:16.350Z,66.69
2018-06-24T06:13:45.509Z,67.34
2018-06-24T06:16:14.694Z,67.04
2018-06-24T06:18:43.706Z,67.20
2018-06-24T06:21:12.793Z,67.32
2018-06-24T06:23:41.870Z,67.05
2018-06-24T06:26:11.054Z,66.79
2018-06-24T06:28:40.113Z,66.93
2018-06-24T06:31:09.228Z,66.72
2018-06-24T06:33:38.325Z,65.75
2018-06-24T06:36:07.450Z,66.36
2018-06-24T06:38:36.569Z,65.78
2018-06-24T06:41:05.690Z,65.66
2018-06-24T06:43:34.859Z,64.93
2018-06-24T06:46:07.282Z,64.82
2018-06-24T06:48:36.457Z,65.40
2018-06-24T06:51:06.386Z,65.47
2018-06-24T06:53:35.563Z,64.59
2018-06-24T06:56:05.881Z,64.32
2018-06-24T06:58:35.001Z,64.34
2018-06-24T07:01:04.055Z,63.93
2018-06-24T07:03:33.335Z,63.87
2018-06-24T07:06:02.434Z,63.90
2018-06-24T07:08:31.529Z,63.33
2018-06-24T07:11:00.617Z,63.64
2018-06-24T07:13:29.682Z,64.16
2018-06-24T07:15:58.847Z,63.74
2018-06-24T07:18:27.910Z,63.85
2018-06-24T07:20:56.958Z,63.07
2018-06-24T07:23:26.196Z,63.07
2018-06-24T07:25:55.282Z,62.57
2018-06-24T07:28:24.375Z,62.17
2018-06-24T07:30:54.030Z,62.10
2018-06-24T07:33:23.110Z,61.37
2018-06-24T07:35:52.206Z,61.00
2018-06-24T07:38:21.321Z,60.17
2018-06-24T07:40:50.398Z,60.26
2018-06-24T07:43:19.469Z,59.43
2018-06-24T07:45:48.562Z,59.64
2018-06-24T07:48:17.774Z,58.93
2018-06-24T07:50:46.902Z,58.30
2018-06-24T07:53:16.085Z,58.42
2018-06-24T07:55:45.169Z,58.46
2018-06-24T07:58:14.242Z,57.49
2018-06-24T08:00:43.375Z,57.15
2018-06-24T08:03:12.579Z,55.96
2018-06-24T08:05:41.630Z,55.55
2018-06-24T08:08:10.670Z,56.56
2018-06-24T08:10:39.742Z,56.29
2018-06-24T08:13:08.845Z,57.21
2018-06-24T08:15:38.012Z,55.83
2018-06-24T08:18:07.373Z,54.59
2018-06-24T08:20:36.489Z,53.85
2018-06-24T08:23:06.209Z,53.32
2018-06-24T08:25:35.334Z,52.33
2018-06-24T08:28:04.538Z,51.63
2018-06-24T08:30:33.637Z,49.69
2018-06-24T08:33:02.725Z,49.63
2018-06-24T08:35:31.898Z,49.74
2018-06-24T08:38:00.993Z,49.77
2018-06-24T08:40:30.138Z,48.49
2018-06-24T08:42:59.382Z,48.85
2018-06-24T08:45:28.454Z,48.96
2018-06-24T08:47:57.552Z,48.35
2018-06-24T08:50:26.626Z,47.20
2018-06-24T08:52:55.697Z,48.56
2018-06-24T08:55:25.575Z,48.03
2018-06-24T08:57:54.745Z,46.43
2018-06-24T09:00:23.842Z,47.02
2018-06-24T09:02:54.101Z,47.18
2018-06-24T09:05:23.531Z,45.69
2018-06-24T09:07:52.681Z,46.08
2018-06-24T09:10:21.865Z,45.41
2018-06-24T09:12:50.998Z,46.26
2018-06-24T09:15:20.143Z,45.67
2018-06-24T09:17:49.253Z,45.69
2018-06-24T09:20:18.350Z,46.26
2018-06-24T09:22:47.405Z,46.13
2018-06-24T09:25:16.478Z,46.17
2018-06-24T09:27:45.669Z,45.59
2018-06-24T09:30:14.733Z,45.90
2018-06-24T09:32:43.916Z,45.96
2018-06-24T09:35:12.978Z,46.50
2018-06-24T09:37:42.206Z,47.02
2018-06-24T09:40:11.274Z,46.34
2018-06-24T09:42:40.808Z,45.89
2018-06-24T09:45:09.900Z,44.82
2018-06-24T09:47:39.000Z,45.11
2018-06-24T09:50:08.553Z,44.39
2018-06-24T09:52:37.925Z,44.19
2018-06-24T09:55:07.054Z,44.07
2018-06-24T09:57:36.141Z,42.98
2018-06-24T10:00:07.178Z,44.77
2018-06-24T10:02:36.229Z,44.32
2018-06-24T10:05:05.354Z,43.38
2018-06-24T10:07:34.546Z,43.05
2018-06-24T10:10:03.663Z,43.55
2018-06-24T10:12:32.746Z,42.99
2018-06-24T10:15:01.881Z,44.07
2018-06-24T10:17:31.075Z,42.92
2018-06-24T10:20:00.227Z,41.77
2018-06-24T10:22:29.588Z,41.09
2018-06-24T10:24:58.765Z,41.43
2018-06-24T10:27:27.830Z,41.20
2018-06-24T10:29:56.921Z,42.00
2018-06-24T10:32:25.993Z,41.67
2018-06-24T10:34:55.438Z,41.53
2018-06-24T10:37:24.485Z,41.95
2018-06-24T10:39:53.577Z,41.44
2018-06-24T10:42:22.971Z,41.62
2018-06-24T10:44:52.141Z,41.78
2018-06-24T10:47:21.255Z,40.62
2018-06-24T10:49:50.381Z,41.22
2018-06-24T10:52:19.477Z,40.59
2018-06-24T10:54:48.668Z,41.26
2018-06-24T10:57:17.778Z,41.55
2018-06-24T10:59:47.583Z,40.71
2018-06-24T11:02:16.722Z,40.56
2018-06-24T11:04:45.749Z,40.46
2018-06-24T11:07:14.845Z,41.47
2018-06-24T11:09:43.950Z,40.60
2018-06-24T11:12:13.426Z,40.50
2018-06-24T11:14:42.613Z,40.86
2018-06-24T11:17:11.750Z,41.57
2018-06-24T11:19:40.947Z,41.96
2018-06-24T11:22:10.044Z,41.87
2018-06-24T11:24:39.206Z,42.58
2018-06-24T11:27:08.363Z,42.25
2018-06-24T11:29:37.440Z,42.06
2018-06-24T11:32:06.518Z,41.29
2018-06-24T11:34:35.662Z,41.45
2018-06-24T11:37:06.016Z,41.53
2018-06-24T11:39:35.080Z,41.25
2018-06-24T11:42:04.170Z,40.65
2018-06-24T11:44:33.269Z,41.44
2018-06-24T11:47:02.827Z,39.44
2018-06-24T11:49:31.939Z,40.14
2018-06-24T11:52:01.137Z,40.33
2018-06-24T11:54:30.262Z,40.93
2018-06-24T11:56:59.298Z,41.34
2018-06-24T11:59:28.372Z,39.67
2018-06-24T12:01:57.488Z,40.05
2018-06-24T12:04:26.833Z,39.46
2018-06-24T12:06:55.976Z,38.85
2018-06-24T12:09:25.034Z,38.89
2018-06-24T12:11:54.185Z,38.73
2018-06-24T12:14:23.438Z,38.51
2018-06-24T12:16:52.507Z,37.46
2018-06-24T12:19:21.650Z,37.02
2018-06-24T12:21:50.743Z,37.64
2018-06-24T12:24:19.831Z,38.67
2018-06-24T12:26:48.919Z,39.49
2018-06-24T12:29:18.066Z,39.66
2018-06-24T12:31:47.154Z,38.86
2018-06-24T12:34:16.264Z,37.67
2018-06-24T12:36:45.672Z,37.98
2018-06-24T12:39:16.980Z,37.80
2018-06-24T12:41:46.349Z,38.16
2018-06-24T12:44:15.429Z,38.65
2018-06-24T12:46:44.543Z,38.69
2018-06-24T12:49:13.684Z,37.78
2018-06-24T12:51:42.895Z,38.81
2018-06-24T12:54:11.990Z,38.63
2018-06-24T12:56:41.112Z,39.59
2018-06-24T12:59:10.455Z,40.04
2018-06-24T13:01:39.470Z,39.54
2018-06-24T13:04:08.533Z,39.94
2018-06-24T13:06:38.662Z,40.43
2018-06-24T13:09:09.007Z,40.71
2018-06-24T13:11:38.165Z,38.74
2018-06-24T13:14:07.445Z,38.26
2018-06-24T13:16:36.495Z,37.27
2018-06-24T13:19:06.647Z,39.47
2018-06-24T13:21:35.737Z,38.81
2018-06-24T13:24:06.081Z,38.98
2018-06-24T13:26:35.176Z,38.34
2018-06-24T13:29:04.239Z,38.38
2018-06-24T13:31:33.391Z,38.89
2018-06-24T13:34:02.501Z,39.62
2018-06-24T13:36:31.730Z,40.00
2018-06-24T13:39:00.879Z,39.19
2018-06-24T13:41:30.015Z,39.49
2018-06-24T13:43:59.225Z,39.41
2018-06-24T13:46:28.369Z,38.56
2018-06-24T13:48:57.502Z,37.15
2018-06-24T13:51:26.607Z,37.31
2018-06-24T13:53:55.724Z,37.07
2018-06-24T13:56:24.852Z,36.57
2018-06-24T13:58:54.813Z,37.04
2018-06-24T14:01:23.917Z,35.91
2018-06-24T14:03:53.042Z,36.80
2018-06-24T14:06:22.109Z,36.11
2018-06-24T14:08:51.206Z,37.11
2018-06-24T14:11:20.373Z,37.58
2018-06-24T14:13:49.577Z,37.98
2018-06-24T14:16:18.693Z,37.86
2018-06-24T14:18:47.955Z,38.68
2018-06-24T14:21:17.114Z,37.86
2018-06-24T14:23:47.055Z,35.48
2018-06-24T14:26:16.478Z,35.16
2018-06-24T14:28:45.757Z,34.39
2018-06-24T14:31:15.237Z,34.93
2018-06-24T14:33:44.401Z,35.13
2018-06-24T14:36:13.581Z,34.95
2018-06-24T14:38:44.057Z,35.79
2018-06-24T14:41:13.310Z,35.11
2018-06-24T14:43:42.821Z,35.71
2018-06-24T14:46:12.007Z,36.09
2018-06-24T14:48:41.232Z,36.63
2018-06-24T14:51:10.718Z,36.61
2018-06-24T14:53:39.918Z,37.11
2018-06-24T14:56:09.520Z,38.24
2018-06-24T14:58:38.810Z,37.85
2018-06-24T15:01:07.921Z,38.61
2018-06-24T15:03:37.135Z,39.07
2018-06-24T15:06:06.412Z,38.66
2018-06-24T15:08:35.502Z,39.28
2018-06-24T15:11:06.242Z,38.99
2018-06-24T15:13:35.340Z,39.32
2018-06-24T15:16:06.239Z,38.87
2018-06-24T15:18:35.374Z,38.66
2018-06-24T15:21:05.903Z,38.37
2018-06-24T15:23:38.589Z,38.62
2018-06-24T15:26:07.837Z,36.84
2018-06-24T15:28:37.966Z,36.28
2018-06-24T15:31:07.156Z,37.57
2018-06-24T15:33:37.178Z,37.22
2018-06-24T15:36:06.662Z,37.68
2018-06-24T15:38:35.823Z,37.73
2018-06-24T15:41:05.119Z,37.78
2018-06-24T15:43:34.223Z,38.26
2018-06-24T15:46:03.349Z,38.24
2018-06-24T15:48:32.520Z,38.85
2018-06-24T15:51:01.664Z,37.93
2018-06-24T15:53:30.770Z,38.06
2018-06-24T15:56:00.291Z,38.80
2018-06-24T15:58:29.537Z,39.07
2018-06-24T16:00:58.688Z,39.58
2018-06-24T16:03:27.983Z,39.25
2018-06-24T16:05:57.157Z,39.45
2018-06-24T16:08:26.308Z,39.20
2018-06-24T16:10:55.540Z,39.61
2018-06-24T16:13:24.722Z,38.68
2018-06-24T16:15:53.852Z,39.20
2018-06-24T16:18:23.318Z,38.08
2018-06-24T16:20:52.735Z,38.80
2018-06-24T16:23:21.804Z,39.29
2018-06-24T16:25:51.051Z,38.36
2018-06-24T16:28:20.389Z,40.07
2018-06-24T16:30:49.553Z,39.97
2018-06-24T16:33:18.710Z,40.87
2018-06-24T16:35:47.933Z,40.19
2018-06-24T16:38:17.065Z,40.40
2018-06-24T16:40:46.198Z,40.42
2018-06-24T16:43:15.262Z,40.05
2018-06-24T16:45:44.517Z,40.53
2018-06-24T16:48:13.640Z,39.07
2018-06-24T16:50:42.768Z,39.66
2018-06-24T16:53:11.961Z,40.10
2018-06-24T16:55:41.131Z,40.06
2018-06-24T16:58:10.269Z,40.02
2018-06-24T17:00:39.390Z,40.06
2018-06-24T17:03:08.577Z,40.97
2018-06-24T17:05:37.826Z,41.46
2018-06-24T17:08:07.559Z,41.12
2018-06-24T17:10:36.641Z,40.98
2018-06-24T17:13:06.243Z,41.45
2018-06-24T17:15:35.396Z,41.48
2018-06-24T17:18:04.526Z,41.94
2018-06-24T17:20:33.594Z,41.81
2018-06-24T17:23:02.728Z,42.63
2018-06-24T17:25:32.541Z,43.08
2018-06-24T17:28:01.728Z,43.09
2018-06-24T17:30:30.815Z,42.78
2018-06-24T17:32:59.955Z,43.39
2018-06-24T17:35:29.112Z,43.24
2018-06-24T17:37:58.472Z,42.86
2018-06-24T17:40:27.579Z,44.35
2018-06-24T17:42:57.205Z,44.04
2018-06-24T17:45:26.490Z,44.41
2018-06-24T17:47:55.648Z,44.63
2018-06-24T17:50:24.810Z,44.47
2018-06-24T17:52:54.062Z,44.46
2018-06-24T17:55:23.171Z,44.91
2018-06-24T17:57:53.175Z,44.88
2018-06-24T18:00:22.300Z,44.19
2018-06-24T18:02:51.727Z,44.31
2018-06-24T18:05:20.995Z,45.46
2018-06-24T18:07:50.535Z,45.84
2018-06-24T18:10:19.693Z,45.90
2018-06-24T18:12:48.798Z,44.89
2018-06-24T18:15:18.026Z,45.32
2018-06-24T18:17:47.235Z,45.07
2018-06-24T18:20:16.759Z,45.75
2018-06-24T18:22:45.810Z,45.27
2018-06-24T18:25:15.005Z,46.33
2018-06-24T18:27:44.135Z,45.97
2018-06-24T18:30:13.251Z,46.48
2018-06-24T18:32:48.267Z,46.39
2018-06-24T18:35:12.070Z,46.13
2018-06-24T18:37:41.306Z,46.45
2018-06-24T18:40:10.736Z,46.14
2018-06-24T18:42:40.009Z,46.67
2018-06-24T18:45:09.827Z,46.79
2018-06-24T18:47:38.926Z,47.74
2018-06-24T18:50:08.128Z,47.20
2018-06-24T18:52:37.889Z,47.97
2018-06-24T18:55:07.047Z,47.63
2018-06-24T18:57:36.143Z,48.52
2018-06-24T19:00:06.302Z,48.34
2018-06-24T19:02:35.504Z,47.29
2018-06-24T19:05:05.111Z,47.64
2018-06-24T19:07:34.277Z,47.46
2018-06-24T19:10:03.548Z,48.45
2018-06-24T19:12:32.756Z,49.05
2018-06-24T19:15:01.852Z,49.18
2018-06-24T19:17:31.069Z,49.01
2018-06-24T19:20:01.414Z,48.99
2018-06-24T19:22:30.578Z,49.38
2018-06-24T19:24:59.808Z,49.26
2018-06-24T19:27:29.080Z,48.79
2018-06-24T19:29:58.306Z,49.06
2018-06-24T19:32:27.426Z,49.10
2018-06-24T19:34:56.550Z,48.76
2018-06-24T19:37:25.734Z,48.80
2018-06-24T19:39:55.052Z,47.70
2018-06-24T19:42:24.300Z,47.73
2018-06-24T19:44:53.519Z,47.79
2018-06-24T19:47:22.852Z,47.58
2018-06-24T19:49:52.210Z,47.93
2018-06-24T19:52:21.310Z,47.09
2018-06-24T19:54:50.880Z,47.23
2018-06-24T19:57:21.175Z,48.18
2018-06-24T19:59:50.301Z,47.95
2018-06-24T20:02:19.545Z,48.32
2018-06-24T20:04:50.699Z,48.68
2018-06-24T20:07:20.726Z,49.42
2018-06-24T20:09:50.365Z,49.18
2018-06-24T20:12:19.472Z,49.95
2018-06-24T20:14:49.173Z,49.21
2018-06-24T20:17:18.397Z,49.14
2018-06-24T20:19:48.682Z,49.18
2018-06-24T20:22:17.907Z,49.28
2018-06-24T20:24:47.103Z,48.42
2018-06-24T20:27:16.387Z,48.42
2018-06-24T20:29:45.873Z,48.69
2018-06-24T20:32:15.322Z,48.35
2018-06-24T20:34:44.538Z,48.93
2018-06-24T20:37:14.287Z,48.85
2018-06-24T20:39:43.543Z,48.39
2018-06-24T20:42:12.804Z,47.63
2018-06-24T20:44:42.047Z,48.19
2018-06-24T20:47:11.278Z,47.86
2018-06-24T20:49:40.509Z,48.44
2018-06-24T20:52:09.931Z,48.11
2018-06-24T20:54:39.026Z,47.77
2018-06-24T20:57:08.445Z,48.38
2018-06-24T20:59:37.596Z,47.93
2018-06-24T21:02:06.736Z,47.64
2018-06-24T21:04:42.612Z,48.39
2018-06-24T21:07:11.697Z,47.99
2018-06-24T21:09:40.825Z,47.86
2018-06-24T21:12:10.090Z,48.42
2018-06-24T21:14:39.246Z,47.97
2018-06-24T21:17:08.339Z,48.69
2018-06-24T21:19:37.459Z,48.13
2018-06-24T21:22:06.634Z,48.14
2018-06-24T21:24:37.472Z,48.14
2018-06-24T21:27:12.834Z,48.78
2018-06-24T21:29:41.916Z,48.17
2018-06-24T21:32:11.041Z,49.21
2018-06-24T21:34:40.162Z,49.47
2018-06-24T21:37:09.320Z,49.86
2018-06-24T21:39:38.409Z,50.54
2018-06-24T21:42:07.524Z,50.33
2018-06-24T21:44:36.847Z,50.81
2018-06-24T21:47:06.079Z,51.62
2018-06-24T21:49:35.404Z,52.31
2018-06-24T21:52:04.509Z,52.30
2018-06-24T21:54:33.696Z,52.82
2018-06-24T21:57:02.874Z,52.98
2018-06-24T21:59:32.200Z,52.86
2018-06-24T22:02:04.473Z,52.78
2018-06-24T22:04:33.610Z,52.21
2018-06-24T22:07:02.984Z,52.56
2018-06-24T22:09:32.161Z,52.60
2018-06-24T22:12:02.185Z,52.01
2018-06-24T22:14:31.293Z,53.00
2018-06-24T22:17:00.418Z,53.03
2018-06-24T22:19:29.688Z,54.26
2018-06-24T22:21:58.775Z,54.68
2018-06-24T22:24:27.868Z,54.10
2018-06-24T22:26:57.010Z,54.15
2018-06-24T22:29:26.534Z,53.93
2018-06-24T22:31:55.594Z,54.61
2018-06-24T22:34:24.757Z,55.13
2018-06-24T22:36:53.935Z,54.80
2018-06-24T22:39:23.116Z,54.82
2018-06-24T22:41:52.306Z,55.06
2018-06-24T22:44:21.767Z,55.54
2018-06-24T22:46:50.905Z,55.75
2018-06-24T22:49:20.107Z,55.10
2018-06-24T22:51:49.155Z,55.92
2018-06-24T22:54:18.564Z,55.87
2018-06-24T22:56:47.707Z,55.66
2018-06-24T22:59:28.165Z,55.82
2018-06-24T23:01:57.311Z,55.64
2018-06-24T23:04:26.470Z,56.51
2018-06-24T23:06:55.628Z,56.24
2018-06-24T23:09:24.949Z,56.99
2018-06-24T23:11:54.353Z,57.76
2018-06-24T23:14:23.538Z,57.39
2018-06-24T23:16:52.696Z,57.76
2018-06-24T23:19:21.885Z,58.31
2018-06-24T23:21:51.013Z,58.61
2018-06-24T23:24:20.208Z,57.45
2018-06-24T23:26:49.475Z,57.79
2018-06-24T23:29:18.670Z,57.96
2018-06-24T23:31:47.824Z,57.34
2018-06-24T23:34:16.877Z,60.13
2018-06-24T23:36:45.995Z,57.68
2018-06-24T23:39:15.155Z,58.26
2018-06-24T23:41:44.342Z,59.02
2018-06-24T23:44:13.521Z,58.87
2018-06-24T23:46:42.735Z,58.82
2018-06-24T23:49:11.924Z,58.57
2018-06-24T23:51:41.014Z,58.95
2018-06-24T23:54:10.138Z,59.89
2018-06-24T23:56:39.254Z,58.84
2018-06-24T23:59:08.376Z,59.30
